Terminal Aerodrome Forecast
Issued by NWS

Home | Current Version | Previous Version | Text Only | Print | Product List | Glossary On
Versions: 1 2 3 4 5 6 7 8 9 10 11 12 13 14 15 16 17
000
FTUS44 KBMX 171257 AAA
TAFMGM
TAF AMD
KMGM 171257Z 1713/1812 13003KT P6SM BKN015 OVC050
      TEMPO 1713/1716 BKN008
     FM171600 20008KT P6SM BKN025
     FM171900 20007KT P6SM BKN050
     FM180600 19003KT 5SM BR OVC015=

USA.gov is the U.S. government's official web portal to all federal, state and local government web resources and services.